sensor_id;sensor_type;location;lat;lon;timestamp;temperature;humidity
45115;DHT22;30877;43.706;10.780;2023-03-19T00:00:29;12.40;96.70
45115;DHT22;30877;43.706;10.780;2023-03-19T00:02:58;12.50;96.70
45115;DHT22;30877;43.706;10.780;2023-03-19T00:05:26;12.50;96.70
45115;DHT22;30877;43.706;10.780;2023-03-19T00:07:56;12.50;96.70
45115;DHT22;30877;43.706;10.780;2023-03-19T00:10:24;12.40;96.70
45115;DHT22;30877;43.706;10.780;2023-03-19T00:12:52;12.30;96.70
45115;DHT22;30877;43.706;10.780;2023-03-19T00:15:20;12.40;96.70
45115;DHT22;30877;43.706;10.780;2023-03-19T00:17:48;12.30;96.70
45115;DHT22;30877;43.706;10.780;2023-03-19T00:20:16;12.40;96.70
45115;DHT22;30877;43.706;10.780;2023-03-19T00:22:46;12.40;96.70
45115;DHT22;30877;43.706;10.780;2023-03-19T00:25:16;12.40;96.70
45115;DHT22;30877;43.706;10.780;2023-03-19T00:27:44;12.40;96.70
45115;DHT22;30877;43.706;10.780;2023-03-19T00:30:13;12.30;96.70
45115;DHT22;30877;43.706;10.780;2023-03-19T00:32:41;12.20;96.70
45115;DHT22;30877;43.706;10.780;2023-03-19T00:35:10;12.20;96.70
45115;DHT22;30877;43.706;10.780;2023-03-19T00:37:39;12.20;96.70
45115;DHT22;30877;43.706;10.780;2023-03-19T00:40:08;12.10;96.70
45115;DHT22;30877;43.706;10.780;2023-03-19T00:42:38;12.10;96.70
45115;DHT22;30877;43.706;10.780;2023-03-19T00:45:08;12.20;96.70
45115;DHT22;30877;43.706;10.780;2023-03-19T00:47:36;12.20;96.70
45115;DHT22;30877;43.706;10.780;2023-03-19T00:50:05;12.20;96.70
45115;DHT22;30877;43.706;10.780;2023-03-19T00:52:33;12.20;96.70
45115;DHT22;30877;43.706;10.780;2023-03-19T00:55:01;12.20;96.70
45115;DHT22;30877;43.706;10.780;2023-03-19T00:57:29;12.20;96.70
45115;DHT22;30877;43.706;10.780;2023-03-19T00:59:59;12.30;96.70
45115;DHT22;30877;43.706;10.780;2023-03-19T01:02:27;12.30;96.70
45115;DHT22;30877;43.706;10.780;2023-03-19T01:04:55;12.20;96.70
45115;DHT22;30877;43.706;10.780;2023-03-19T01:07:23;12.20;96.70
45115;DHT22;30877;43.706;10.780;2023-03-19T01:09:51;12.20;96.70
45115;DHT22;30877;43.706;10.780;2023-03-19T01:12:19;12.20;96.70
45115;DHT22;30877;43.706;10.780;2023-03-19T01:14:47;12.20;96.70
45115;DHT22;30877;43.706;10.780;2023-03-19T01:17:17;12.20;96.70
45115;DHT22;30877;43.706;10.780;2023-03-19T01:19:45;12.20;96.70
45115;DHT22;30877;43.706;10.780;2023-03-19T01:22:13;12.30;96.70
45115;DHT22;30877;43.706;10.780;2023-03-19T01:24:48;12.30;96.70
45115;DHT22;30877;43.706;10.780;2023-03-19T01:27:16;12.40;96.70
45115;DHT22;30877;43.706;10.780;2023-03-19T01:29:44;12.40;96.70
45115;DHT22;30877;43.706;10.780;2023-03-19T01:32:20;12.40;96.70
45115;DHT22;30877;43.706;10.780;2023-03-19T01:35:14;12.30;96.70
45115;DHT22;30877;43.706;10.780;2023-03-19T01:37:42;12.30;96.70
45115;DHT22;30877;43.706;10.780;2023-03-19T01:40:12;12.30;96.70
45115;DHT22;30877;43.706;10.780;2023-03-19T01:42:52;12.20;96.70
45115;DHT22;30877;43.706;10.780;2023-03-19T01:45:45;12.20;96.70
45115;DHT22;30877;43.706;10.780;2023-03-19T01:48:46;12.30;96.70
45115;DHT22;30877;43.706;10.780;2023-03-19T01:51:21;12.30;96.70
45115;DHT22;30877;43.706;10.780;2023-03-19T01:53:57;12.30;96.70
45115;DHT22;30877;43.706;10.780;2023-03-19T01:56:57;12.40;96.70
45115;DHT22;30877;43.706;10.780;2023-03-19T01:59:46;12.40;96.70
45115;DHT22;30877;43.706;10.780;2023-03-19T02:02:36;12.40;96.70
45115;DHT22;30877;43.706;10.780;2023-03-19T02:05:19;12.30;96.70
45115;DHT22;30877;43.706;10.780;2023-03-19T02:08:14;12.30;96.70
45115;DHT22;30877;43.706;10.780;2023-03-19T02:10:45;12.40;96.70
45115;DHT22;30877;43.706;10.780;2023-03-19T02:13:15;12.30;96.70
45115;DHT22;30877;43.706;10.780;2023-03-19T02:15:43;12.30;96.70
45115;DHT22;30877;43.706;10.780;2023-03-19T02:18:12;12.20;96.70
45115;DHT22;30877;43.706;10.780;2023-03-19T02:20:48;12.20;96.70
45115;DHT22;30877;43.706;10.780;2023-03-19T02:23:25;12.30;96.70
45115;DHT22;30877;43.706;10.780;2023-03-19T02:26:11;12.30;96.70
45115;DHT22;30877;43.706;10.780;2023-03-19T02:28:41;12.30;96.70
45115;DHT22;30877;43.706;10.780;2023-03-19T02:31:13;12.30;96.70
45115;DHT22;30877;43.706;10.780;2023-03-19T02:33:42;12.30;96.70
45115;DHT22;30877;43.706;10.780;2023-03-19T02:36:13;12.30;96.70
45115;DHT22;30877;43.706;10.780;2023-03-19T02:38:43;12.30;96.70
45115;DHT22;30877;43.706;10.780;2023-03-19T02:41:15;12.20;96.70
45115;DHT22;30877;43.706;10.780;2023-03-19T02:43:43;12.20;96.70
45115;DHT22;30877;43.706;10.780;2023-03-19T02:46:12;12.20;96.70
45115;DHT22;30877;43.706;10.780;2023-03-19T02:48:40;12.30;96.70
45115;DHT22;30877;43.706;10.780;2023-03-19T02:51:09;12.30;96.70
45115;DHT22;30877;43.706;10.780;2023-03-19T02:53:37;12.30;96.70
45115;DHT22;30877;43.706;10.780;2023-03-19T02:56:06;12.40;96.70
45115;DHT22;30877;43.706;10.780;2023-03-19T02:58:36;12.40;96.70
45115;DHT22;30877;43.706;10.780;2023-03-19T03:01:04;12.30;96.70
45115;DHT22;30877;43.706;10.780;2023-03-19T03:03:33;12.30;96.70
45115;DHT22;30877;43.706;10.780;2023-03-19T03:06:01;12.30;96.70
45115;DHT22;30877;43.706;10.780;2023-03-19T03:08:29;12.20;96.70
45115;DHT22;30877;43.706;10.780;2023-03-19T03:10:58;12.20;96.70
45115;DHT22;30877;43.706;10.780;2023-03-19T03:13:26;12.30;96.70
45115;DHT22;30877;43.706;10.780;2023-03-19T03:15:56;12.30;96.70
45115;DHT22;30877;43.706;10.780;2023-03-19T03:18:25;12.30;96.70
45115;DHT22;30877;43.706;10.780;2023-03-19T03:20:54;12.30;96.70
45115;DHT22;30877;43.706;10.780;2023-03-19T03:23:22;12.40;96.70
45115;DHT22;30877;43.706;10.780;2023-03-19T03:25:50;12.30;96.70
45115;DHT22;30877;43.706;10.780;2023-03-19T03:28:19;12.30;96.70
45115;DHT22;30877;43.706;10.780;2023-03-19T03:30:47;12.40;96.70
45115;DHT22;30877;43.706;10.780;2023-03-19T03:33:17;12.40;96.70
45115;DHT22;30877;43.706;10.780;2023-03-19T03:35:45;12.40;96.70
45115;DHT22;30877;43.706;10.780;2023-03-19T03:38:14;12.40;96.70
45115;DHT22;30877;43.706;10.780;2023-03-19T03:40:42;12.40;96.70
45115;DHT22;30877;43.706;10.780;2023-03-19T03:43:10;12.40;96.70
45115;DHT22;30877;43.706;10.780;2023-03-19T03:45:39;12.40;96.70
45115;DHT22;30877;43.706;10.780;2023-03-19T03:48:07;12.40;96.70
45115;DHT22;30877;43.706;10.780;2023-03-19T03:50:37;12.40;96.70
45115;DHT22;30877;43.706;10.780;2023-03-19T03:53:09;12.40;96.70
45115;DHT22;30877;43.706;10.780;2023-03-19T03:55:39;12.50;96.70
45115;DHT22;30877;43.706;10.780;2023-03-19T03:58:07;12.50;96.70
45115;DHT22;30877;43.706;10.780;2023-03-19T04:00:35;12.40;96.70
45115;DHT22;30877;43.706;10.780;2023-03-19T04:03:04;12.30;96.70
45115;DHT22;30877;43.706;10.780;2023-03-19T04:05:32;12.30;96.70
45115;DHT22;30877;43.706;10.780;2023-03-19T04:08:02;12.30;96.70
45115;DHT22;30877;43.706;10.780;2023-03-19T04:10:30;12.40;96.70
45115;DHT22;30877;43.706;10.780;2023-03-19T04:12:59;12.40;96.70
45115;DHT22;30877;43.706;10.780;2023-03-19T04:15:30;12.40;96.70
45115;DHT22;30877;43.706;10.780;2023-03-19T04:17:59;12.40;96.70
45115;DHT22;30877;43.706;10.780;2023-03-19T04:20:27;12.40;96.70
45115;DHT22;30877;43.706;10.780;2023-03-19T04:22:56;12.40;96.70
45115;DHT22;30877;43.706;10.780;2023-03-19T04:25:26;12.40;96.70
45115;DHT22;30877;43.706;10.780;2023-03-19T04:27:56;12.40;96.70
45115;DHT22;30877;43.706;10.780;2023-03-19T04:30:26;12.40;96.70
45115;DHT22;30877;43.706;10.780;2023-03-19T04:32:55;12.30;96.70
45115;DHT22;30877;43.706;10.780;2023-03-19T04:35:24;12.30;96.70
45115;DHT22;30877;43.706;10.780;2023-03-19T04:37:52;12.40;96.70
45115;DHT22;30877;43.706;10.780;2023-03-19T04:40:21;12.40;96.70
45115;DHT22;30877;43.706;10.780;2023-03-19T04:42:51;12.40;96.70
45115;DHT22;30877;43.706;10.780;2023-03-19T04:45:34;12.40;96.70
45115;DHT22;30877;43.706;10.780;2023-03-19T04:48:02;12.40;96.70
45115;DHT22;30877;43.706;10.780;2023-03-19T04:50:33;12.40;96.70
45115;DHT22;30877;43.706;10.780;2023-03-19T04:53:02;12.40;96.70
45115;DHT22;30877;43.706;10.780;2023-03-19T04:55:31;12.40;96.70
45115;DHT22;30877;43.706;10.780;2023-03-19T04:58:13;12.40;96.70
45115;DHT22;30877;43.706;10.780;2023-03-19T05:00:42;12.40;96.70
45115;DHT22;30877;43.706;10.780;2023-03-19T05:03:18;12.40;96.70
45115;DHT22;30877;43.706;10.780;2023-03-19T05:05:47;12.40;96.70
45115;DHT22;30877;43.706;10.780;2023-03-19T05:08:15;12.40;96.70
45115;DHT22;30877;43.706;10.780;2023-03-19T05:10:44;12.40;96.70
45115;DHT22;30877;43.706;10.780;2023-03-19T05:13:15;12.50;96.70
45115;DHT22;30877;43.706;10.780;2023-03-19T05:15:48;12.50;96.70
45115;DHT22;30877;43.706;10.780;2023-03-19T05:18:19;12.40;96.70
45115;DHT22;30877;43.706;10.780;2023-03-19T05:20:48;12.40;96.70
45115;DHT22;30877;43.706;10.780;2023-03-19T05:23:19;12.40;96.70
45115;DHT22;30877;43.706;10.780;2023-03-19T05:26:05;12.40;96.70
45115;DHT22;30877;43.706;10.780;2023-03-19T05:29:01;12.50;96.70
45115;DHT22;30877;43.706;10.780;2023-03-19T05:31:45;12.50;96.70
45115;DHT22;30877;43.706;10.780;2023-03-19T05:34:15;12.50;96.70
45115;DHT22;30877;43.706;10.780;2023-03-19T05:36:43;12.50;96.70
45115;DHT22;30877;43.706;10.780;2023-03-19T05:39:16;12.50;96.70
45115;DHT22;30877;43.706;10.780;2023-03-19T05:41:45;12.50;96.70
45115;DHT22;30877;43.706;10.780;2023-03-19T05:44:19;12.50;96.70
45115;DHT22;30877;43.706;10.780;2023-03-19T05:46:59;12.50;96.70
45115;DHT22;30877;43.706;10.780;2023-03-19T05:49:31;12.60;96.70
45115;DHT22;30877;43.706;10.780;2023-03-19T05:52:00;12.60;96.70
45115;DHT22;30877;43.706;10.780;2023-03-19T05:54:29;12.60;96.70
45115;DHT22;30877;43.706;10.780;2023-03-19T05:57:11;12.60;96.70
45115;DHT22;30877;43.706;10.780;2023-03-19T06:00:05;12.60;96.70
45115;DHT22;30877;43.706;10.780;2023-03-19T06:02:34;12.60;96.70
45115;DHT22;30877;43.706;10.780;2023-03-19T06:05:16;12.60;96.70
45115;DHT22;30877;43.706;10.780;2023-03-19T06:07:45;12.60;96.70
45115;DHT22;30877;43.706;10.780;2023-03-19T06:10:23;12.60;96.70
45115;DHT22;30877;43.706;10.780;2023-03-19T06:12:54;12.50;96.70
45115;DHT22;30877;43.706;10.780;2023-03-19T06:15:50;12.50;96.70
45115;DHT22;30877;43.706;10.780;2023-03-19T06:18:23;12.50;96.70
45115;DHT22;30877;43.706;10.780;2023-03-19T06:20:51;12.50;96.70
45115;DHT22;30877;43.706;10.780;2023-03-19T06:23:20;12.50;96.70
45115;DHT22;30877;43.706;10.780;2023-03-19T06:25:48;12.60;96.70
45115;DHT22;30877;43.706;10.780;2023-03-19T06:28:17;12.60;96.70
45115;DHT22;30877;43.706;10.780;2023-03-19T06:30:45;12.60;96.70
45115;DHT22;30877;43.706;10.780;2023-03-19T06:33:41;12.60;96.70
45115;DHT22;30877;43.706;10.780;2023-03-19T06:36:09;12.60;96.70
45115;DHT22;30877;43.706;10.780;2023-03-19T06:38:38;12.60;96.70
45115;DHT22;30877;43.706;10.780;2023-03-19T06:41:06;12.60;96.70
45115;DHT22;30877;43.706;10.780;2023-03-19T06:43:34;12.60;96.70
45115;DHT22;30877;43.706;10.780;2023-03-19T06:46:04;12.60;96.70
45115;DHT22;30877;43.706;10.780;2023-03-19T06:48:36;12.60;96.70
45115;DHT22;30877;43.706;10.780;2023-03-19T06:51:09;12.70;96.70
45115;DHT22;30877;43.706;10.780;2023-03-19T06:53:37;12.70;96.70
45115;DHT22;30877;43.706;10.780;2023-03-19T06:56:09;12.60;96.70
45115;DHT22;30877;43.706;10.780;2023-03-19T06:58:37;12.60;96.70
45115;DHT22;30877;43.706;10.780;2023-03-19T07:01:05;12.60;96.70
45115;DHT22;30877;43.706;10.780;2023-03-19T07:03:34;12.60;96.70
45115;DHT22;30877;43.706;10.780;2023-03-19T07:06:02;12.60;96.70
45115;DHT22;30877;43.706;10.780;2023-03-19T07:08:32;12.60;96.70
45115;DHT22;30877;43.706;10.780;2023-03-19T07:11:03;12.60;96.70
45115;DHT22;30877;43.706;10.780;2023-03-19T07:13:32;12.60;96.70
45115;DHT22;30877;43.706;10.780;2023-03-19T07:16:00;12.60;96.70
45115;DHT22;30877;43.706;10.780;2023-03-19T07:18:28;12.60;96.70
45115;DHT22;30877;43.706;10.780;2023-03-19T07:20:57;12.60;96.70
45115;DHT22;30877;43.706;10.780;2023-03-19T07:23:25;12.60;96.70
45115;DHT22;30877;43.706;10.780;2023-03-19T07:25:54;12.60;96.70
45115;DHT22;30877;43.706;10.780;2023-03-19T07:28:22;12.60;96.70
45115;DHT22;30877;43.706;10.780;2023-03-19T07:30:51;12.60;96.70
45115;DHT22;30877;43.706;10.780;2023-03-19T07:33:20;12.60;96.70
45115;DHT22;30877;43.706;10.780;2023-03-19T07:35:49;12.60;96.70
45115;DHT22;30877;43.706;10.780;2023-03-19T07:38:17;12.60;96.70
45115;DHT22;30877;43.706;10.780;2023-03-19T07:40:45;12.60;96.70
45115;DHT22;30877;43.706;10.780;2023-03-19T07:43:29;12.60;96.70
45115;DHT22;30877;43.706;10.780;2023-03-19T07:45:58;12.60;96.70
45115;DHT22;30877;43.706;10.780;2023-03-19T07:48:26;12.60;96.70
45115;DHT22;30877;43.706;10.780;2023-03-19T07:50:54;12.60;96.70
45115;DHT22;30877;43.706;10.780;2023-03-19T07:53:23;12.60;96.70
45115;DHT22;30877;43.706;10.780;2023-03-19T07:55:51;12.60;96.70
45115;DHT22;30877;43.706;10.780;2023-03-19T07:58:19;12.60;96.70
45115;DHT22;30877;43.706;10.780;2023-03-19T08:00:49;12.60;96.70
45115;DHT22;30877;43.706;10.780;2023-03-19T08:03:17;12.70;96.70
45115;DHT22;30877;43.706;10.780;2023-03-19T08:05:47;12.70;96.70
45115;DHT22;30877;43.706;10.780;2023-03-19T08:08:16;12.70;96.70
45115;DHT22;30877;43.706;10.780;2023-03-19T08:10:45;12.70;96.70
45115;DHT22;30877;43.706;10.780;2023-03-19T08:13:15;12.70;96.70
45115;DHT22;30877;43.706;10.780;2023-03-19T08:15:43;12.70;96.70
45115;DHT22;30877;43.706;10.780;2023-03-19T08:18:12;12.70;96.70
45115;DHT22;30877;43.706;10.780;2023-03-19T08:20:40;12.70;96.70
45115;DHT22;30877;43.706;10.780;2023-03-19T08:23:08;12.70;96.70
45115;DHT22;30877;43.706;10.780;2023-03-19T08:25:37;12.70;96.70
45115;DHT22;30877;43.706;10.780;2023-03-19T08:28:05;12.80;96.70
45115;DHT22;30877;43.706;10.780;2023-03-19T08:30:34;12.80;96.70
45115;DHT22;30877;43.706;10.780;2023-03-19T08:33:03;12.90;96.70
45115;DHT22;30877;43.706;10.780;2023-03-19T08:35:32;12.90;96.70
45115;DHT22;30877;43.706;10.780;2023-03-19T08:38:01;12.90;96.70
45115;DHT22;30877;43.706;10.780;2023-03-19T08:40:29;12.90;96.70
45115;DHT22;30877;43.706;10.780;2023-03-19T08:42:57;12.90;96.70
45115;DHT22;30877;43.706;10.780;2023-03-19T08:45:25;12.90;96.70
45115;DHT22;30877;43.706;10.780;2023-03-19T08:47:55;13.00;96.70
45115;DHT22;30877;43.706;10.780;2023-03-19T08:50:24;13.00;96.70
45115;DHT22;30877;43.706;10.780;2023-03-19T08:52:54;13.00;96.70
45115;DHT22;30877;43.706;10.780;2023-03-19T08:55:23;13.00;96.70
45115;DHT22;30877;43.706;10.780;2023-03-19T08:57:51;13.00;96.70
45115;DHT22;30877;43.706;10.780;2023-03-19T09:00:20;13.00;96.70
45115;DHT22;30877;43.706;10.780;2023-03-19T09:02:48;13.10;96.70
45115;DHT22;30877;43.706;10.780;2023-03-19T09:05:17;13.10;96.70
45115;DHT22;30877;43.706;10.780;2023-03-19T09:07:50;13.10;96.70
45115;DHT22;30877;43.706;10.780;2023-03-19T09:10:21;13.10;96.70
45115;DHT22;30877;43.706;10.780;2023-03-19T09:12:49;13.20;96.70
45115;DHT22;30877;43.706;10.780;2023-03-19T09:15:17;13.30;96.70
45115;DHT22;30877;43.706;10.780;2023-03-19T09:17:45;13.30;96.70
45115;DHT22;30877;43.706;10.780;2023-03-19T09:20:14;13.30;96.70
45115;DHT22;30877;43.706;10.780;2023-03-19T09:22:42;13.40;96.70
45115;DHT22;30877;43.706;10.780;2023-03-19T09:25:10;13.40;96.70
45115;DHT22;30877;43.706;10.780;2023-03-19T09:27:40;13.50;96.70
45115;DHT22;30877;43.706;10.780;2023-03-19T09:30:10;13.40;96.70
45115;DHT22;30877;43.706;10.780;2023-03-19T09:32:38;13.50;96.70
45115;DHT22;30877;43.706;10.780;2023-03-19T09:35:07;13.40;96.70
45115;DHT22;30877;43.706;10.780;2023-03-19T09:37:35;13.50;96.70
45115;DHT22;30877;43.706;10.780;2023-03-19T09:40:05;13.50;96.70
45115;DHT22;30877;43.706;10.780;2023-03-19T09:42:52;13.50;96.70
45115;DHT22;30877;43.706;10.780;2023-03-19T09:45:27;13.60;96.70
45115;DHT22;30877;43.706;10.780;2023-03-19T09:47:59;13.70;96.70
45115;DHT22;30877;43.706;10.780;2023-03-19T09:50:31;13.70;96.70
45115;DHT22;30877;43.706;10.780;2023-03-19T09:53:05;13.70;96.70
45115;DHT22;30877;43.706;10.780;2023-03-19T09:55:40;13.80;96.70
45115;DHT22;30877;43.706;10.780;2023-03-19T09:58:13;13.70;96.70
45115;DHT22;30877;43.706;10.780;2023-03-19T10:00:45;13.70;96.70
45115;DHT22;30877;43.706;10.780;2023-03-19T10:06:19;13.90;96.70
45115;DHT22;30877;43.706;10.780;2023-03-19T10:09:03;13.90;96.70
45115;DHT22;30877;43.706;10.780;2023-03-19T10:11:52;13.90;96.70
45115;DHT22;30877;43.706;10.780;2023-03-19T10:14:51;13.80;96.70
45115;DHT22;30877;43.706;10.780;2023-03-19T10:17:29;13.80;96.70
45115;DHT22;30877;43.706;10.780;2023-03-19T10:20:03;13.80;96.70
45115;DHT22;30877;43.706;10.780;2023-03-19T10:22:36;13.80;96.70
45115;DHT22;30877;43.706;10.780;2023-03-19T10:25:10;13.80;96.70
45115;DHT22;30877;43.706;10.780;2023-03-19T10:27:41;13.80;96.70
45115;DHT22;30877;43.706;10.780;2023-03-19T10:30:16;13.70;96.70
45115;DHT22;30877;43.706;10.780;2023-03-19T10:32:50;13.70;96.70
45115;DHT22;30877;43.706;10.780;2023-03-19T10:35:23;13.70;96.70
45115;DHT22;30877;43.706;10.780;2023-03-19T10:37:54;13.70;96.70
45115;DHT22;30877;43.706;10.780;2023-03-19T10:40:27;13.80;96.70
45115;DHT22;30877;43.706;10.780;2023-03-19T10:43:06;13.80;96.70
45115;DHT22;30877;43.706;10.780;2023-03-19T10:45:42;13.90;96.70
45115;DHT22;30877;43.706;10.780;2023-03-19T10:48:14;14.00;96.70
45115;DHT22;30877;43.706;10.780;2023-03-19T10:50:47;14.10;96.70
45115;DHT22;30877;43.706;10.780;2023-03-19T10:53:30;14.20;96.70
45115;DHT22;30877;43.706;10.780;2023-03-19T10:56:01;14.20;96.70
45115;DHT22;30877;43.706;10.780;2023-03-19T10:58:31;14.20;96.70
45115;DHT22;30877;43.706;10.780;2023-03-19T11:01:05;14.30;96.70
45115;DHT22;30877;43.706;10.780;2023-03-19T11:03:35;14.30;96.70
45115;DHT22;30877;43.706;10.780;2023-03-19T11:06:15;14.30;96.70
45115;DHT22;30877;43.706;10.780;2023-03-19T11:08:52;14.30;96.70
45115;DHT22;30877;43.706;10.780;2023-03-19T11:11:30;14.30;96.70
45115;DHT22;30877;43.706;10.780;2023-03-19T11:14:06;14.40;96.70
45115;DHT22;30877;43.706;10.780;2023-03-19T11:16:54;14.40;96.70
45115;DHT22;30877;43.706;10.780;2023-03-19T11:19:25;14.40;96.70
45115;DHT22;30877;43.706;10.780;2023-03-19T11:22:02;14.40;96.70
45115;DHT22;30877;43.706;10.780;2023-03-19T11:24:37;14.40;96.70
45115;DHT22;30877;43.706;10.780;2023-03-19T11:27:06;14.30;96.70
45115;DHT22;30877;43.706;10.780;2023-03-19T11:29:38;14.30;96.70
45115;DHT22;30877;43.706;10.780;2023-03-19T11:32:24;14.30;96.70
45115;DHT22;30877;43.706;10.780;2023-03-19T11:35:04;14.30;96.70
45115;DHT22;30877;43.706;10.780;2023-03-19T11:37:48;14.30;96.70
45115;DHT22;30877;43.706;10.780;2023-03-19T11:40:25;14.20;96.70
45115;DHT22;30877;43.706;10.780;2023-03-19T11:43:11;14.20;96.70
45115;DHT22;30877;43.706;10.780;2023-03-19T11:45:50;14.20;96.70
45115;DHT22;30877;43.706;10.780;2023-03-19T11:48:34;14.10;96.70
45115;DHT22;30877;43.706;10.780;2023-03-19T11:51:09;14.20;96.70
45115;DHT22;30877;43.706;10.780;2023-03-19T11:53:53;14.10;96.70
45115;DHT22;30877;43.706;10.780;2023-03-19T11:56:30;14.10;96.70
45115;DHT22;30877;43.706;10.780;2023-03-19T11:59:19;14.10;96.70
45115;DHT22;30877;43.706;10.780;2023-03-19T12:02:45;14.10;96.70
45115;DHT22;30877;43.706;10.780;2023-03-19T12:05:23;14.10;96.70
45115;DHT22;30877;43.706;10.780;2023-03-19T12:08:05;14.10;96.70
45115;DHT22;30877;43.706;10.780;2023-03-19T12:10:44;14.20;96.70
45115;DHT22;30877;43.706;10.780;2023-03-19T12:13:30;14.20;96.70
45115;DHT22;30877;43.706;10.780;2023-03-19T12:16:10;14.20;96.70
45115;DHT22;30877;43.706;10.780;2023-03-19T12:18:56;14.30;96.70
45115;DHT22;30877;43.706;10.780;2023-03-19T12:21:36;14.30;96.70
45115;DHT22;30877;43.706;10.780;2023-03-19T12:24:14;14.30;96.70
45115;DHT22;30877;43.706;10.780;2023-03-19T12:26:53;14.20;96.70
45115;DHT22;30877;43.706;10.780;2023-03-19T12:29:31;14.20;96.70
45115;DHT22;30877;43.706;10.780;2023-03-19T12:32:20;14.10;96.70
45115;DHT22;30877;43.706;10.780;2023-03-19T12:34:54;14.20;96.70
45115;DHT22;30877;43.706;10.780;2023-03-19T12:37:30;14.20;96.70
45115;DHT22;30877;43.706;10.780;2023-03-19T12:40:16;14.20;96.70
45115;DHT22;30877;43.706;10.780;2023-03-19T12:42:47;14.20;96.70
45115;DHT22;30877;43.706;10.780;2023-03-19T12:45:25;14.20;96.70
45115;DHT22;30877;43.706;10.780;2023-03-19T12:48:01;14.20;96.70
45115;DHT22;30877;43.706;10.780;2023-03-19T12:50:31;14.20;96.70
45115;DHT22;30877;43.706;10.780;2023-03-19T12:53:06;14.20;96.70
45115;DHT22;30877;43.706;10.780;2023-03-19T12:55:41;14.10;96.70
45115;DHT22;30877;43.706;10.780;2023-03-19T12:58:15;14.20;96.70
45115;DHT22;30877;43.706;10.780;2023-03-19T13:00:50;14.30;96.70
45115;DHT22;30877;43.706;10.780;2023-03-19T13:03:24;14.40;96.70
45115;DHT22;30877;43.706;10.780;2023-03-19T13:06:00;14.60;96.70
45115;DHT22;30877;43.706;10.780;2023-03-19T13:08:36;14.60;96.70
45115;DHT22;30877;43.706;10.780;2023-03-19T13:11:12;14.60;96.70
45115;DHT22;30877;43.706;10.780;2023-03-19T13:13:47;14.70;96.70
45115;DHT22;30877;43.706;10.780;2023-03-19T13:16:32;14.60;96.70
45115;DHT22;30877;43.706;10.780;2023-03-19T13:19:12;14.60;96.70
45115;DHT22;30877;43.706;10.780;2023-03-19T13:21:45;14.50;96.70
45115;DHT22;30877;43.706;10.780;2023-03-19T13:24:20;14.50;96.70
45115;DHT22;30877;43.706;10.780;2023-03-19T13:26:49;14.50;96.70
45115;DHT22;30877;43.706;10.780;2023-03-19T13:29:20;14.50;96.70
45115;DHT22;30877;43.706;10.780;2023-03-19T13:31:49;14.50;96.70
45115;DHT22;30877;43.706;10.780;2023-03-19T13:34:23;14.50;96.70
45115;DHT22;30877;43.706;10.780;2023-03-19T13:36:59;14.40;96.70
45115;DHT22;30877;43.706;10.780;2023-03-19T13:39:32;14.40;96.70
45115;DHT22;30877;43.706;10.780;2023-03-19T13:42:22;14.40;96.70
45115;DHT22;30877;43.706;10.780;2023-03-19T13:45:01;14.30;96.70
45115;DHT22;30877;43.706;10.780;2023-03-19T13:47:41;14.30;96.70
45115;DHT22;30877;43.706;10.780;2023-03-19T13:50:30;14.40;96.70
45115;DHT22;30877;43.706;10.780;2023-03-19T13:53:33;14.40;96.70
45115;DHT22;30877;43.706;10.780;2023-03-19T13:56:04;14.50;96.70
45115;DHT22;30877;43.706;10.780;2023-03-19T13:59:22;14.60;96.70
45115;DHT22;30877;43.706;10.780;2023-03-19T14:01:51;14.60;96.70
45115;DHT22;30877;43.706;10.780;2023-03-19T14:04:22;14.60;96.70
45115;DHT22;30877;43.706;10.780;2023-03-19T14:06:54;14.60;96.70
45115;DHT22;30877;43.706;10.780;2023-03-19T14:09:44;14.60;96.70
45115;DHT22;30877;43.706;10.780;2023-03-19T14:12:28;14.60;96.70
45115;DHT22;30877;43.706;10.780;2023-03-19T14:15:00;14.60;96.70
45115;DHT22;30877;43.706;10.780;2023-03-19T14:17:32;14.60;96.70
45115;DHT22;30877;43.706;10.780;2023-03-19T14:20:05;14.60;96.70
45115;DHT22;30877;43.706;10.780;2023-03-19T14:23:19;14.70;96.70
45115;DHT22;30877;43.706;10.780;2023-03-19T14:26:14;14.70;96.70
45115;DHT22;30877;43.706;10.780;2023-03-19T14:28:52;14.60;96.70
45115;DHT22;30877;43.706;10.780;2023-03-19T14:31:36;14.60;96.70
45115;DHT22;30877;43.706;10.780;2023-03-19T14:34:17;14.60;96.70
45115;DHT22;30877;43.706;10.780;2023-03-19T14:36:51;14.60;96.70
45115;DHT22;30877;43.706;10.780;2023-03-19T14:39:24;14.60;96.70
45115;DHT22;30877;43.706;10.780;2023-03-19T14:42:00;14.60;96.70
45115;DHT22;30877;43.706;10.780;2023-03-19T14:44:52;14.60;96.70
45115;DHT22;30877;43.706;10.780;2023-03-19T14:47:54;14.50;96.70
45115;DHT22;30877;43.706;10.780;2023-03-19T14:53:23;14.60;96.70
45115;DHT22;30877;43.706;10.780;2023-03-19T14:55:52;14.60;96.70
45115;DHT22;30877;43.706;10.780;2023-03-19T14:58:21;14.60;96.70
45115;DHT22;30877;43.706;10.780;2023-03-19T15:00:53;14.60;96.70
45115;DHT22;30877;43.706;10.780;2023-03-19T15:03:27;14.60;96.70
45115;DHT22;30877;43.706;10.780;2023-03-19T15:05:58;14.60;96.70
45115;DHT22;30877;43.706;10.780;2023-03-19T15:08:30;14.60;96.70
45115;DHT22;30877;43.706;10.780;2023-03-19T15:11:17;14.60;96.70
45115;DHT22;30877;43.706;10.780;2023-03-19T15:14:09;14.60;96.70
45115;DHT22;30877;43.706;10.780;2023-03-19T15:16:48;14.50;96.70
45115;DHT22;30877;43.706;10.780;2023-03-19T15:19:24;14.40;96.70
45115;DHT22;30877;43.706;10.780;2023-03-19T15:22:03;14.40;96.70
45115;DHT22;30877;43.706;10.780;2023-03-19T15:24:32;14.30;96.70
45115;DHT22;30877;43.706;10.780;2023-03-19T15:27:19;14.30;96.70
45115;DHT22;30877;43.706;10.780;2023-03-19T15:29:48;14.20;96.70
45115;DHT22;30877;43.706;10.780;2023-03-19T15:32:34;14.20;96.70
45115;DHT22;30877;43.706;10.780;2023-03-19T15:35:25;14.20;96.70
45115;DHT22;30877;43.706;10.780;2023-03-19T15:37:57;14.20;96.70
45115;DHT22;30877;43.706;10.780;2023-03-19T15:40:29;14.20;96.70
45115;DHT22;30877;43.706;10.780;2023-03-19T15:42:59;14.20;96.70
45115;DHT22;30877;43.706;10.780;2023-03-19T15:45:30;14.20;96.70
45115;DHT22;30877;43.706;10.780;2023-03-19T15:48:03;14.20;96.70
45115;DHT22;30877;43.706;10.780;2023-03-19T15:50:35;14.20;96.70
45115;DHT22;30877;43.706;10.780;2023-03-19T15:53:09;14.20;96.70
45115;DHT22;30877;43.706;10.780;2023-03-19T15:55:38;14.20;96.70
45115;DHT22;30877;43.706;10.780;2023-03-19T15:58:08;14.20;96.70
45115;DHT22;30877;43.706;10.780;2023-03-19T16:00:39;14.10;96.70